createdAt,value
2019-04-20T00:01:25.771Z,8.23
2019-04-20T00:03:48.547Z,7.17
2019-04-20T00:06:19.381Z,9.55
2019-04-20T00:08:55.726Z,8.35
2019-04-20T00:11:27.504Z,7.85
2019-04-20T00:14:00.174Z,8.73
2019-04-20T00:16:22.958Z,9.38
2019-04-20T00:18:56.631Z,9.48
2019-04-20T00:21:47.371Z,7.15
2019-04-20T00:24:16.909Z,7.53
2019-04-20T00:27:09.165Z,8.00
2019-04-20T00:29:30.914Z,8.50
2019-04-20T00:31:56.601Z,8.28
2019-04-20T00:34:24.117Z,8.10
2019-04-20T00:36:47.446Z,6.70
2019-04-20T00:39:19.768Z,7.67
2019-04-20T00:41:53.761Z,8.03
2019-04-20T00:44:23.373Z,8.48
2019-04-20T00:47:00.996Z,6.42
2019-04-20T00:49:35.066Z,7.33
2019-04-20T00:52:19.101Z,5.67
2019-04-20T00:54:22.264Z,6.72
2019-04-20T00:56:52.054Z,5.95
2019-04-20T00:59:35.433Z,6.03
2019-04-20T01:02:15.617Z,8.63
2019-04-20T01:04:52.380Z,7.50
2019-04-20T01:07:11.387Z,9.48
2019-04-20T01:09:30.886Z,6.67
2019-04-20T01:12:04.053Z,7.37
2019-04-20T01:14:38.766Z,7.08
2019-04-20T01:17:11.315Z,8.58
2019-04-20T01:19:31.895Z,7.12
2019-04-20T01:22:05.237Z,6.55
2019-04-20T01:24:37.121Z,6.12
2019-04-20T01:27:05.070Z,7.78
2019-04-20T01:29:41.156Z,7.08
2019-04-20T01:32:15.109Z,7.45
2019-04-20T01:34:47.486Z,8.05
2019-04-20T01:37:21.217Z,8.83
2019-04-20T01:39:43.155Z,7.12
2019-04-20T01:42:06.562Z,10.08
2019-04-20T01:44:41.267Z,8.93
2019-04-20T01:47:08.321Z,8.13
2019-04-20T01:49:39.926Z,7.53
2019-04-20T01:52:16.052Z,8.80
2019-04-20T01:54:59.172Z,6.83
2019-04-20T01:57:29.984Z,7.15
2019-04-20T02:00:08.130Z,6.53
2019-04-20T02:02:31.126Z,5.75
2019-04-20T02:05:10.262Z,6.83
2019-04-20T02:07:37.351Z,8.53
2019-04-20T02:10:05.106Z,7.53
2019-04-20T02:12:35.679Z,8.03
2019-04-20T02:15:06.093Z,8.18
2019-04-20T02:17:40.994Z,8.90
2019-04-20T02:20:23.179Z,7.25
2019-04-20T02:22:51.590Z,6.97
2019-04-20T02:25:08.022Z,8.45
2019-04-20T02:27:45.609Z,7.37
2019-04-20T02:30:44.120Z,8.20
2019-04-20T02:33:39.020Z,6.85
2019-04-20T02:36:04.670Z,6.83
2019-04-20T02:38:42.201Z,7.45
2019-04-20T02:40:57.737Z,9.13
2019-04-20T02:43:40.252Z,8.55
2019-04-20T02:46:15.220Z,9.33
2019-04-20T02:48:37.338Z,8.15
2019-04-20T02:50:58.497Z,8.23
2019-04-20T02:53:50.878Z,7.12
2019-04-20T02:56:08.617Z,6.78
2019-04-20T02:58:39.009Z,7.45
2019-04-20T03:01:02.261Z,6.28
2019-04-20T03:03:19.429Z,4.97
2019-04-20T03:05:43.179Z,7.00
2019-04-20T03:08:22.234Z,8.25
2019-04-20T03:11:00.857Z,7.87
2019-04-20T03:13:26.631Z,7.87
2019-04-20T03:15:56.497Z,8.15
2019-04-20T03:18:26.562Z,6.62
2019-04-20T03:21:04.564Z,7.58
2019-04-20T03:23:38.548Z,10.75
2019-04-20T03:26:17.596Z,8.30
2019-04-20T03:29:01.087Z,8.50
2019-04-20T03:36:53.138Z,7.58
2019-04-20T03:39:12.680Z,8.30
2019-04-20T03:41:36.277Z,7.08
2019-04-20T03:44:04.470Z,7.33
2019-04-20T03:46:38.683Z,8.73
2019-04-20T03:49:20.279Z,7.05
2019-04-20T03:51:53.420Z,8.65
2019-04-20T03:54:38.626Z,9.78
2019-04-20T03:57:32.501Z,8.55
2019-04-20T04:00:00.479Z,8.45
2019-04-20T04:02:47.941Z,7.65
2019-04-20T04:05:08.762Z,10.05
2019-04-20T04:07:30.412Z,8.83
2019-04-20T04:10:10.344Z,9.95
2019-04-20T04:13:01.066Z,7.85
2019-04-20T04:15:30.034Z,7.58
2019-04-20T04:18:08.866Z,6.67
2019-04-20T04:20:38.740Z,6.92
2019-04-20T04:23:19.490Z,6.00
2019-04-20T04:25:48.022Z,6.78
2019-04-20T04:28:23.350Z,8.18
2019-04-20T04:30:49.540Z,10.28
2019-04-20T04:35:51.350Z,7.72
2019-04-20T04:38:27.341Z,8.10
2019-04-20T04:41:01.948Z,10.40
2019-04-20T04:43:28.510Z,9.95
2019-04-20T04:45:38.513Z,8.05
2019-04-20T04:48:14.751Z,6.22
2019-04-20T04:50:47.439Z,9.00
2019-04-20T04:53:17.141Z,8.65
2019-04-20T04:55:50.083Z,6.28
2019-04-20T04:58:10.680Z,9.00
2019-04-20T05:00:40.841Z,12.55
2019-04-20T05:03:28.197Z,13.50
2019-04-20T05:06:03.458Z,12.65
2019-04-20T05:08:24.118Z,10.68
2019-04-20T05:10:47.883Z,10.20
2019-04-20T05:13:17.761Z,13.38
2019-04-20T05:16:03.578Z,11.50
2019-04-20T05:18:45.729Z,9.65
2019-04-20T05:21:17.001Z,9.53
2019-04-20T05:23:42.382Z,9.30
2019-04-20T05:26:25.378Z,7.65
2019-04-20T05:28:46.099Z,8.50
2019-04-20T05:31:09.588Z,9.33
2019-04-20T05:34:05.609Z,9.55
2019-04-20T05:36:28.150Z,12.50
2019-04-20T05:39:02.252Z,9.25
2019-04-20T05:41:26.709Z,7.67
2019-04-20T05:43:59.801Z,10.30
2019-04-20T05:46:32.113Z,6.80
2019-04-20T05:49:13.422Z,9.50
2019-04-20T05:51:49.898Z,12.15
2019-04-20T05:54:09.882Z,11.70
2019-04-20T05:56:42.353Z,11.43
2019-04-20T05:59:09.820Z,11.65
2019-04-20T06:01:40.814Z,10.05
2019-04-20T06:04:10.051Z,8.05
2019-04-20T06:06:47.671Z,8.15
2019-04-20T06:09:27.544Z,9.68
2019-04-20T06:11:55.040Z,9.38
2019-04-20T06:14:10.134Z,9.73
2019-04-20T06:16:59.999Z,10.45
2019-04-20T06:22:12.586Z,8.63
2019-04-20T06:24:49.496Z,10.30
2019-04-20T06:27:08.776Z,9.28
2019-04-20T06:29:42.702Z,9.60
2019-04-20T06:32:21.186Z,8.90
2019-04-20T06:34:55.937Z,11.08
2019-04-20T06:37:10.203Z,10.20
2019-04-20T06:42:15.243Z,9.95
2019-04-20T06:44:41.531Z,9.93
2019-04-20T06:47:17.613Z,8.93
2019-04-20T06:49:42.056Z,7.62
2019-04-20T06:52:26.175Z,9.20
2019-04-20T06:54:59.331Z,8.85
2019-04-20T06:57:38.485Z,9.20
2019-04-20T07:00:07.377Z,11.15
2019-04-20T07:05:08.806Z,9.55
2019-04-20T07:07:36.018Z,10.00
2019-04-20T07:10:16.234Z,10.70
2019-04-20T07:12:32.789Z,9.65
2019-04-20T07:14:55.720Z,10.10
2019-04-20T07:17:48.465Z,10.48
2019-04-20T07:20:12.894Z,10.43
2019-04-20T07:22:46.522Z,8.68
2019-04-20T07:25:21.467Z,8.98
2019-04-20T07:27:47.914Z,11.05
2019-04-20T07:30:17.528Z,8.18
2019-04-20T07:32:52.378Z,9.55
2019-04-20T07:35:19.760Z,10.93
2019-04-20T07:40:22.895Z,10.10
2019-04-20T07:45:28.302Z,11.22
2019-04-20T07:47:58.725Z,8.63
2019-04-20T07:50:20.086Z,10.90
2019-04-20T07:52:46.350Z,9.93
2019-04-20T07:55:36.995Z,10.25
2019-04-20T07:57:50.028Z,9.80
2019-04-20T08:00:38.241Z,9.95
2019-04-20T08:03:26.566Z,10.68
2019-04-20T08:05:39.452Z,9.78
2019-04-20T08:08:18.109Z,9.85
2019-04-20T08:10:47.489Z,9.78
2019-04-20T08:13:25.695Z,8.53
2019-04-20T08:15:58.793Z,10.60
2019-04-20T08:18:28.032Z,10.30
2019-04-20T08:20:58.106Z,9.80
2019-04-20T08:23:38.913Z,10.50
2019-04-20T08:25:47.374Z,11.20
2019-04-20T08:28:16.733Z,11.88
2019-04-20T08:31:02.469Z,8.88
2019-04-20T08:33:37.984Z,10.32
2019-04-20T08:36:11.120Z,9.95
2019-04-20T08:41:08.506Z,9.03
2019-04-20T08:46:16.040Z,11.18
2019-04-20T08:48:47.561Z,10.65
2019-04-20T08:51:22.705Z,12.05
2019-04-20T08:53:47.101Z,11.97
2019-04-20T08:56:10.803Z,10.68
2019-04-20T08:58:31.462Z,10.63
2019-04-20T09:01:04.935Z,11.57
2019-04-20T09:03:45.510Z,10.72
2019-04-20T09:06:07.545Z,10.40
2019-04-20T09:08:46.540Z,9.95
2019-04-20T09:11:19.612Z,9.63
2019-04-20T09:13:43.450Z,9.73
2019-04-20T09:16:06.653Z,9.68
2019-04-20T09:18:48.800Z,8.93
2019-04-20T09:21:22.052Z,8.23
2019-04-20T09:24:10.770Z,8.15
2019-04-20T09:26:37.212Z,9.13
2019-04-20T09:29:07.319Z,9.38
2019-04-20T09:31:35.187Z,9.33
2019-04-20T09:34:14.493Z,10.10
2019-04-20T09:36:37.515Z,11.55
2019-04-20T09:39:14.972Z,11.20
2019-04-20T09:41:58.121Z,9.43
2019-04-20T09:44:06.801Z,10.32
2019-04-20T09:46:42.482Z,10.43
2019-04-20T09:49:16.778Z,10.40
2019-04-20T09:51:53.692Z,9.98
2019-04-20T09:54:26.731Z,11.20
2019-04-20T09:57:00.691Z,10.72
2019-04-20T09:59:28.761Z,10.30
2019-04-20T10:01:45.267Z,9.60
2019-04-20T10:04:11.067Z,8.40
2019-04-20T10:06:41.453Z,8.30
2019-04-20T10:09:11.633Z,8.30
2019-04-20T10:11:43.624Z,8.25
2019-04-20T10:14:12.333Z,8.55
2019-04-20T10:16:42.021Z,8.50
2019-04-20T10:19:11.978Z,8.18
2019-04-20T10:21:41.551Z,8.63
2019-04-20T10:24:10.665Z,8.50
2019-04-20T10:26:40.761Z,9.05
2019-04-20T10:29:09.962Z,8.60
2019-04-20T10:31:46.878Z,8.13
2019-04-20T10:34:09.613Z,9.10
2019-04-20T10:36:46.080Z,9.23
2019-04-20T10:39:16.544Z,7.17
2019-04-20T10:41:51.162Z,7.55
2019-04-20T10:44:16.726Z,8.03
2019-04-20T10:46:47.029Z,7.85
2019-04-20T10:49:17.404Z,8.43
2019-04-20T10:51:47.558Z,8.55
2019-04-20T10:54:16.556Z,8.68
2019-04-20T10:56:45.736Z,8.20
2019-04-20T10:59:15.911Z,8.35
2019-04-20T11:01:45.678Z,8.60
2019-04-20T11:04:14.881Z,9.03
2019-04-20T11:06:44.814Z,9.60
2019-04-20T11:09:14.327Z,7.78
2019-04-20T11:11:44.144Z,8.98
2019-04-20T11:14:20.913Z,7.60
2019-04-20T11:16:44.523Z,8.20
2019-04-20T11:19:13.615Z,8.95
2019-04-20T11:21:44.015Z,8.63
2019-04-20T11:24:14.227Z,7.95
2019-04-20T11:26:45.110Z,7.30
2019-04-20T11:29:14.064Z,7.95
2019-04-20T11:31:48.809Z,8.28
2019-04-20T11:34:14.973Z,9.05
2019-04-20T11:36:45.347Z,8.53
2019-04-20T11:39:14.867Z,8.48
2019-04-20T11:41:43.779Z,9.18
2019-04-20T11:44:13.763Z,8.85
2019-04-20T11:46:43.019Z,8.20
2019-04-20T11:49:13.135Z,8.88
2019-04-20T11:51:43.446Z,9.30
2019-04-20T11:54:12.635Z,10.75
2019-04-20T11:56:45.211Z,10.08
2019-04-20T11:59:12.605Z,9.60
2019-04-20T12:02:03.703Z,8.95
2019-04-20T12:04:41.442Z,9.95
2019-04-20T12:07:02.504Z,10.28
2019-04-20T12:09:31.801Z,9.75
2019-04-20T12:12:11.987Z,9.35
2019-04-20T12:14:32.657Z,9.33
2019-04-20T12:17:03.678Z,11.18
2019-04-20T12:19:34.809Z,11.55
2019-04-20T12:22:03.556Z,10.32
2019-04-20T12:24:33.205Z,12.43
2019-04-20T12:27:02.915Z,11.75
2019-04-20T12:29:32.122Z,12.73
2019-04-20T12:32:03.505Z,12.53
2019-04-20T12:34:31.656Z,13.68
2019-04-20T12:37:02.917Z,10.80
2019-04-20T12:39:33.123Z,11.93
2019-04-20T12:42:04.731Z,11.90
2019-04-20T12:44:32.793Z,13.20
2019-04-20T12:47:01.673Z,12.85
2019-04-20T12:49:31.725Z,12.80
2019-04-20T12:52:03.565Z,13.60
2019-04-20T12:54:32.358Z,12.98
2019-04-20T12:57:02.515Z,13.48
2019-04-20T12:59:31.690Z,13.15
2019-04-20T13:02:01.646Z,13.28
2019-04-20T13:04:30.632Z,13.53
2019-04-20T13:07:01.670Z,13.95
2019-04-20T13:09:34.617Z,14.58
2019-04-20T13:12:15.547Z,14.15
2019-04-20T13:15:10.968Z,13.48
2019-04-20T13:17:40.085Z,13.22
2019-04-20T13:20:10.048Z,13.95
2019-04-20T13:22:39.104Z,13.85
2019-04-20T13:25:08.226Z,14.00
2019-04-20T13:27:37.120Z,14.23
2019-04-20T13:30:09.256Z,14.38
2019-04-20T13:32:38.216Z,15.20
2019-04-20T13:35:09.948Z,14.73
2019-04-20T13:37:40.518Z,16.90
2019-04-20T13:40:11.135Z,15.13
2019-04-20T13:42:41.400Z,14.15
2019-04-20T13:45:11.136Z,13.83
2019-04-20T13:47:41.054Z,14.20
2019-04-20T13:50:12.460Z,15.23
2019-04-20T13:52:41.059Z,16.57
2019-04-20T13:55:10.827Z,14.98
2019-04-20T13:57:42.022Z,17.27
2019-04-20T14:00:22.158Z,16.07
2019-04-20T14:03:14.483Z,16.75
2019-04-20T14:05:44.681Z,17.17
2019-04-20T14:08:17.644Z,17.48
2019-04-20T14:10:47.297Z,16.05
2019-04-20T14:13:19.160Z,15.65
2019-04-20T14:15:47.112Z,14.78
2019-04-20T14:18:17.308Z,16.35
2019-04-20T14:20:48.064Z,14.83
2019-04-20T14:23:17.101Z,15.28
2019-04-20T14:25:47.033Z,16.27
2019-04-20T14:28:15.969Z,14.65
2019-04-20T14:30:45.898Z,13.00
2019-04-20T14:33:14.903Z,14.60
2019-04-20T14:35:45.060Z,13.60
2019-04-20T14:38:15.380Z,13.88
2019-04-20T14:40:44.424Z,12.78
2019-04-20T14:43:13.298Z,12.25
2019-04-20T14:45:42.867Z,11.80
2019-04-20T14:48:12.038Z,11.33
2019-04-20T14:50:41.369Z,12.73
2019-04-20T14:53:11.510Z,12.40
2019-04-20T14:55:41.663Z,12.70
2019-04-20T14:58:13.312Z,13.20
2019-04-20T15:00:56.529Z,14.25
2019-04-20T15:03:40.306Z,15.05
2019-04-20T15:06:09.674Z,15.58
2019-04-20T15:08:38.721Z,15.08
2019-04-20T15:11:07.609Z,15.68
2019-04-20T15:13:36.448Z,14.53
2019-04-20T15:16:06.604Z,14.85
2019-04-20T15:18:39.953Z,14.68
2019-04-20T15:21:11.430Z,14.18
2019-04-20T15:23:41.575Z,13.30
2019-04-20T15:26:10.736Z,13.75
2019-04-20T15:28:39.666Z,15.15
2019-04-20T15:31:08.504Z,13.70
2019-04-20T15:33:38.888Z,12.73
2019-04-20T15:36:08.283Z,13.30
2019-04-20T15:38:37.328Z,14.45
2019-04-20T15:41:08.778Z,13.48
2019-04-20T15:43:39.448Z,13.18
2019-04-20T15:46:09.608Z,14.63
2019-04-20T15:48:39.751Z,15.28
2019-04-20T15:51:09.945Z,14.13
2019-04-20T15:53:39.869Z,14.93
2019-04-20T15:56:11.555Z,15.72
2019-04-20T15:58:41.673Z,15.35
2019-04-20T16:01:12.237Z,14.75
2019-04-20T16:04:01.494Z,15.58
2019-04-20T16:06:31.538Z,15.78
2019-04-20T16:09:02.180Z,15.35
2019-04-20T16:11:31.119Z,16.95
2019-04-20T16:14:01.548Z,16.15
2019-04-20T16:16:31.839Z,15.90
2019-04-20T16:19:10.363Z,16.17
2019-04-20T16:21:37.259Z,16.75
2019-04-20T16:24:08.721Z,15.45
2019-04-20T16:26:39.899Z,15.13
2019-04-20T16:29:19.822Z,15.28
2019-04-20T16:31:46.604Z,15.45
2019-04-20T16:34:19.213Z,16.57
2019-04-20T16:36:49.235Z,15.32
2019-04-20T16:39:20.405Z,15.98
2019-04-20T16:41:50.727Z,16.10
2019-04-20T16:44:21.071Z,17.65
2019-04-20T16:46:50.241Z,17.60
2019-04-20T16:49:19.563Z,16.93
2019-04-20T16:51:49.353Z,19.30
2019-04-20T16:54:19.607Z,20.97
2019-04-20T16:56:52.957Z,21.93
2019-04-20T16:59:22.566Z,21.75
2019-04-20T17:01:53.998Z,23.30
2019-04-20T17:04:26.407Z,22.17
2019-04-20T17:07:16.362Z,24.32
2019-04-20T17:09:52.353Z,27.75
2019-04-20T17:12:23.841Z,22.90
2019-04-20T17:14:53.591Z,22.85
2019-04-20T17:17:22.953Z,23.02
2019-04-20T17:19:55.920Z,23.98
2019-04-20T17:22:25.557Z,22.77
2019-04-20T17:24:55.638Z,23.20
2019-04-20T17:27:26.689Z,22.17
2019-04-20T17:29:58.887Z,20.32
2019-04-20T17:32:31.657Z,23.15
2019-04-20T17:35:19.313Z,18.60
2019-04-20T17:37:42.799Z,24.47
2019-04-20T17:40:38.087Z,18.60
2019-04-20T17:43:00.002Z,20.85
2019-04-20T17:45:28.260Z,22.67
2019-04-20T17:48:07.340Z,20.25
2019-04-20T17:50:39.621Z,17.95
2019-04-20T17:53:05.250Z,20.50
2019-04-20T17:55:42.599Z,21.70
2019-04-20T17:58:14.697Z,20.08
2019-04-20T18:00:51.217Z,19.65
2019-04-20T18:03:58.920Z,21.68
2019-04-20T18:06:17.309Z,18.52
2019-04-20T18:08:46.905Z,21.80
2019-04-20T18:11:07.737Z,20.02
2019-04-20T18:13:33.705Z,20.65
2019-04-20T18:16:22.230Z,18.42
2019-04-20T18:19:00.561Z,22.48
2019-04-20T18:21:39.695Z,25.27
2019-04-20T18:24:14.594Z,22.15
2019-04-20T18:26:52.083Z,23.15
2019-04-20T18:29:26.212Z,25.60
2019-04-20T18:31:43.822Z,19.77
2019-04-20T18:34:18.842Z,21.80
2019-04-20T18:36:47.577Z,21.62
2019-04-20T18:39:18.507Z,19.62
2019-04-20T18:41:55.470Z,17.15
2019-04-20T18:44:27.693Z,20.75
2019-04-20T18:47:16.736Z,15.60
2019-04-20T18:49:41.946Z,15.03
2019-04-20T18:51:59.688Z,13.50
2019-04-20T18:54:34.586Z,13.35
2019-04-20T18:57:01.681Z,15.53
2019-04-20T18:59:40.652Z,23.62
2019-04-20T19:02:11.440Z,19.35
2019-04-20T19:04:43.940Z,15.83
2019-04-20T19:07:14.157Z,16.77
2019-04-20T19:09:44.935Z,21.23
2019-04-20T19:12:16.536Z,16.27
2019-04-20T19:14:49.877Z,15.10
2019-04-20T19:17:29.020Z,19.17
2019-04-20T19:19:56.183Z,22.58
2019-04-20T19:22:23.947Z,17.87
2019-04-20T19:24:53.914Z,18.60
2019-04-20T19:27:32.008Z,16.60
2019-04-20T19:30:07.178Z,14.13
2019-04-20T19:32:43.489Z,22.15
2019-04-20T19:35:06.106Z,22.00
2019-04-20T19:37:32.669Z,26.75
2019-04-20T19:40:06.957Z,19.45
2019-04-20T19:42:39.231Z,24.67
2019-04-20T19:45:27.532Z,32.05
2019-04-20T19:47:48.167Z,33.30
2019-04-20T19:50:25.237Z,23.62
2019-04-20T19:52:58.558Z,20.00
2019-04-20T19:55:16.927Z,18.17
2019-04-20T19:57:45.229Z,14.55
2019-04-20T20:00:02.556Z,18.20
2019-04-20T20:02:32.355Z,17.12
2019-04-20T20:05:08.247Z,20.75
2019-04-20T20:07:38.869Z,15.40
2019-04-20T20:10:08.933Z,17.07
2019-04-20T20:12:41.218Z,13.83
2019-04-20T20:15:15.859Z,15.40
2019-04-20T20:17:58.843Z,19.15
2019-04-20T20:20:35.847Z,15.43
2019-04-20T20:22:50.386Z,17.80
2019-04-20T20:25:18.988Z,15.48
2019-04-20T20:27:55.159Z,16.97
2019-04-20T20:30:27.957Z,18.77
2019-04-20T20:33:02.929Z,15.63
2019-04-20T20:35:26.081Z,19.98
2019-04-20T20:37:59.460Z,16.90
2019-04-20T20:40:32.834Z,19.23
2019-04-20T20:43:28.078Z,15.85
2019-04-20T20:46:05.025Z,11.83
2019-04-20T20:48:35.391Z,13.75
2019-04-20T20:51:12.066Z,11.18
2019-04-20T20:53:41.422Z,17.75
2019-04-20T20:56:06.377Z,13.28
2019-04-20T20:58:46.722Z,16.23
2019-04-20T21:01:14.441Z,13.38
2019-04-20T21:03:42.554Z,13.68
2019-04-20T21:06:09.700Z,21.10
2019-04-20T21:08:45.398Z,23.02
2019-04-20T21:11:13.174Z,15.43
2019-04-20T21:13:45.222Z,20.77
2019-04-20T21:16:17.323Z,15.32
2019-04-20T21:19:03.257Z,22.02
2019-04-20T21:21:27.523Z,20.92
2019-04-20T21:23:53.191Z,16.70
2019-04-20T21:26:25.910Z,22.73
2019-04-20T21:28:48.061Z,22.50
2019-04-20T21:31:24.347Z,21.73
2019-04-20T21:33:55.401Z,23.20
2019-04-20T21:36:29.923Z,24.05
2019-04-20T21:39:01.525Z,22.62
2019-04-20T21:41:31.288Z,22.25
2019-04-20T21:44:01.306Z,20.55
2019-04-20T21:46:40.462Z,23.00
2019-04-20T21:49:21.810Z,23.42
2019-04-20T21:51:44.152Z,22.58
2019-04-20T21:54:05.539Z,23.90
2019-04-20T21:56:39.267Z,22.70
2019-04-20T21:59:17.667Z,22.48
2019-04-20T22:01:47.732Z,22.55
2019-04-20T22:04:33.349Z,18.20
2019-04-20T22:07:04.683Z,24.32
2019-04-20T22:09:40.327Z,18.42
2019-04-20T22:12:05.776Z,18.12
2019-04-20T22:14:35.647Z,18.92
2019-04-20T22:17:09.764Z,24.80
2019-04-20T22:19:45.794Z,13.53
2019-04-20T22:22:22.787Z,22.32
2019-04-20T22:24:56.399Z,16.42
2019-04-20T22:27:20.373Z,15.40
2019-04-20T22:29:48.034Z,12.60
2019-04-20T22:32:20.481Z,22.42
2019-04-20T22:34:57.059Z,25.27
2019-04-20T22:37:28.081Z,19.12
2019-04-20T22:39:59.613Z,15.78
2019-04-20T22:42:31.305Z,18.15
2019-04-20T22:45:05.268Z,15.28
2019-04-20T22:47:32.684Z,15.88
2019-04-20T22:50:21.952Z,27.45
2019-04-20T22:52:47.839Z,27.65
2019-04-20T22:55:29.554Z,25.35
2019-04-20T22:57:48.837Z,25.12
2019-04-20T23:00:11.065Z,27.58
2019-04-20T23:02:38.693Z,18.35
2019-04-20T23:05:08.916Z,25.80
2019-04-20T23:07:38.902Z,25.12
2019-04-20T23:10:08.807Z,25.37
2019-04-20T23:12:39.912Z,24.65
2019-04-20T23:15:10.387Z,26.25
2019-04-20T23:17:43.643Z,11.80
2019-04-20T23:20:17.240Z,25.10
2019-04-20T23:22:45.656Z,26.77
2019-04-20T23:25:13.223Z,24.77
2019-04-20T23:27:43.766Z,23.95
2019-04-20T23:30:23.597Z,24.07
2019-04-20T23:32:44.568Z,25.85
2019-04-20T23:35:18.317Z,24.47
2019-04-20T23:37:46.328Z,24.37
2019-04-20T23:40:16.660Z,25.00
2019-04-20T23:43:03.408Z,26.80
2019-04-20T23:45:46.392Z,19.98
2019-04-20T23:48:16.220Z,21.73
2019-04-20T23:51:02.789Z,21.33
2019-04-20T23:53:33.894Z,21.33
2019-04-20T23:55:47.781Z,20.48
2019-04-20T23:58:18.147Z,16.45
